Long Bennington, United Kingdom
Current Conditions -  °F | °C
As of 1:50 AM on Saturday 22 Nov 2014 (Local Time) from EGYD Reporting Station
Overcast Overcast  
Wind Chill: 40°   Ceiling: 300
Heat Index: 46°   Visibility: 1.3mi
Dew Point: 46°   Wind: 14mph
Humidity: 100%   Direction: 150°SSE
Pressure: 29.85"   Gusts: NA
Location:  52.99°N, 0.76°W
Report Text: EGYD 220150Z AUTO 15012KT 2100 // OVC003/// 08/08 Q1011
Loading
Personal Weather Stations






























Interactive Weather Map New forecast layout! Learn more

10-Day Weather Forecast

Advertisements
Track Severe Weather on mobile